Time;durP1;ratioP1;P1;durP2;ratioP2;P2;SDS_P1;SDS_P2;PMS_P1;PMS_P2;Temp;Humidity;BMP_temperature;BMP_pressure;BME280_temperature;BME280_humidity;BME280_pressure;Samples;Min_cycle;Max_cycle;Signal;HPM_P1;HPM_P2
2024/02/03 00:00:13;;;;;;;2.53;1.37;;;;;;;4.43;100.00;102471.25;2089708;28;20219;-64
2024/02/03 00:01:13;;;;;;;1.80;1.38;;;;;;;4.45;100.00;102473.63;2090018;28;20180;-64
2024/02/03 00:02:14;;;;;;;4.20;1.83;;;;;;;4.46;100.00;102480.72;2089370;28;20692;-64
2024/02/03 00:03:14;;;;;;;3.20;1.60;;;;;;;4.45;100.00;102474.41;2089956;28;20544;-64
2024/02/03 00:04:15;;;;;;;4.67;1.60;;;;;;;4.19;100.00;102427.34;2088199;28;20276;-64
2024/02/03 00:05:16;;;;;;;4.30;1.70;;;;;;;4.52;100.00;102468.34;2089619;28;20246;-64
2024/02/03 00:06:16;;;;;;;4.90;1.60;;;;;;;4.51;100.00;102466.75;2089748;28;20195;-64
2024/02/03 00:07:17;;;;;;;3.07;1.57;;;;;;;4.49;100.00;102471.78;2089581;28;20694;-63
2024/02/03 00:08:17;;;;;;;3.23;1.80;;;;;;;4.52;100.00;102465.59;2087202;28;20192;-64
2024/02/03 00:09:18;;;;;;;6.77;2.20;;;;;;;4.53;100.00;102464.44;2089387;28;20190;-64
2024/02/03 00:10:19;;;;;;;10.97;2.33;;;;;;;4.49;100.00;102452.56;2089717;28;20184;-64
2024/02/03 00:11:19;;;;;;;3.73;1.93;;;;;;;4.52;100.00;102460.91;2090211;28;20191;-64
2024/02/03 00:12:22;;;;;;;3.70;1.70;;;;;;;4.51;100.00;102458.53;2089622;28;20192;-64
2024/02/03 00:13:23;;;;;;;4.70;1.95;;;;;;;4.53;100.00;102457.03;2089668;28;20192;-64
2024/02/03 00:14:23;;;;;;;2.73;1.40;;;;;;;4.55;100.00;102451.16;2089377;28;20270;-64
2024/02/03 00:15:27;;;;;;;6.00;1.90;;;;;;;4.55;100.00;102451.97;2089873;28;20238;-64
2024/02/03 00:16:27;;;;;;;4.05;1.77;;;;;;;4.57;100.00;102444.19;2086979;28;20592;-64
2024/02/03 00:17:28;;;;;;;3.53;1.83;;;;;;;4.58;100.00;102445.00;2088463;28;20200;-64
2024/02/03 00:18:29;;;;;;;6.17;1.93;;;;;;;4.11;100.00;102381.63;2089126;28;20879;-64
2024/02/03 00:19:30;;;;;;;3.45;1.73;;;;;;;4.60;100.00;102431.69;2089380;28;20192;-64
2024/02/03 00:20:31;;;;;;;6.30;1.93;;;;;;;4.66;100.00;102438.56;2088829;28;20677;-64
2024/02/03 00:21:31;;;;;;;4.47;1.50;;;;;;;4.34;100.00;102393.69;2087397;28;20222;-64
2024/02/03 00:22:32;;;;;;;5.37;1.80;;;;;;;4.44;100.00;102406.94;2087837;28;20629;-64
2024/02/03 00:23:32;;;;;;;5.53;2.10;;;;;;;4.47;100.00;102416.44;2089631;28;20667;-64
2024/02/03 00:24:33;;;;;;;4.70;1.53;;;;;;;3.28;100.00;102238.06;2089379;28;20269;-64
2024/02/03 00:25:33;;;;;;;3.70;1.87;;;;;;;4.49;100.00;102434.16;2086728;28;20231;-64
2024/02/03 00:26:34;;;;;;;2.67;1.77;;;;;;;4.50;100.00;102434.94;2087067;28;20199;-64
2024/02/03 00:27:34;;;;;;;3.67;2.00;;;;;;;4.46;100.00;102434.84;2089085;28;20230;-64
2024/02/03 00:28:35;;;;;;;4.97;1.67;;;;;;;4.44;100.00;102428.09;2089825;28;20657;-64
2024/02/03 00:29:35;;;;;;;4.23;1.50;;;;;;;3.99;100.00;102354.22;2089287;28;20659;-64
2024/02/03 00:30:36;;;;;;;2.63;1.50;;;;;;;4.44;100.00;102433.59;2088342;28;20184;-64
2024/02/03 00:31:37;;;;;;;5.03;1.97;;;;;;;4.35;100.00;102428.22;2088151;28;20193;-64
2024/02/03 00:32:37;;;;;;;6.57;2.30;;;;;;;4.42;100.00;102430.41;2089539;28;20727;-64
2024/02/03 00:33:38;;;;;;;3.70;1.77;;;;;;;4.38;100.00;102421.25;2087389;28;20189;-64
2024/02/03 00:34:38;;;;;;;6.53;1.77;;;;;;;4.44;100.00;102419.84;2088309;28;20178;-64
2024/02/03 00:35:39;;;;;;;4.73;2.07;;;;;;;4.45;100.00;102426.94;2089021;28;20281;-64
2024/02/03 00:36:40;;;;;;;3.17;1.60;;;;;;;4.41;100.00;102423.31;2088555;28;20184;-64
2024/02/03 00:37:40;;;;;;;3.30;2.10;;;;;;;4.37;100.00;102417.69;2088753;28;20191;-64
2024/02/03 00:38:41;;;;;;;2.47;1.73;;;;;;;4.41;100.00;102421.34;2088918;28;20287;-63
2024/02/03 00:39:42;;;;;;;3.03;1.90;;;;;;;4.56;100.00;102425.34;2088927;28;20271;-64
2024/02/03 00:40:42;;;;;;;6.80;2.20;;;;;;;4.62;100.00;102423.94;2089314;28;20650;-64
2024/02/03 00:41:43;;;;;;;6.67;2.10;;;;;;;4.57;100.00;102408.47;2089637;28;20188;-63
2024/02/03 00:42:43;;;;;;;4.73;1.90;;;;;;;4.66;100.00;102416.59;2087925;28;20184;-64
2024/02/03 00:43:44;;;;;;;4.37;2.00;;;;;;;4.65;100.00;102415.78;2089239;28;20219;-63
2024/02/03 00:44:45;;;;;;;5.70;2.10;;;;;;;4.66;100.00;102408.38;2088660;28;20193;-63
2024/02/03 00:45:45;;;;;;;2.87;1.70;;;;;;;4.66;100.00;102419.34;2089526;28;20586;-64
2024/02/03 00:46:46;;;;;;;7.60;2.33;;;;;;;4.72;100.00;102423.44;2088503;28;20267;-64
2024/02/03 00:47:46;;;;;;;3.40;1.87;;;;;;;4.76;100.00;102419.63;2089388;28;20224;-64
2024/02/03 00:48:47;;;;;;;2.63;1.87;;;;;;;4.67;100.00;102408.00;2087984;28;20178;-64
2024/02/03 00:49:47;;;;;;;4.03;1.87;;;;;;;4.51;100.00;102367.91;2089387;28;20177;-63
2024/02/03 00:50:48;;;;;;;4.43;1.63;;;;;;;4.87;100.00;102422.69;2088838;28;20637;-64
2024/02/03 00:51:48;;;;;;;4.07;2.20;;;;;;;4.87;100.00;102422.69;2089818;28;20570;-64
2024/02/03 00:52:49;;;;;;;3.87;1.83;;;;;;;4.91;100.00;102416.13;2089366;28;20276;-64
2024/02/03 00:53:49;;;;;;;2.60;2.10;;;;;;;4.97;100.00;102428.47;2087985;28;20270;-64
2024/02/03 00:54:50;;;;;;;6.57;2.30;;;;;;;5.00;100.00;102418.72;2085723;28;20189;-64
2024/02/03 00:55:50;;;;;;;3.73;2.00;;;;;;;5.02;100.00;102419.19;2089333;28;20578;-64
2024/02/03 00:56:51;;;;;;;4.17;1.90;;;;;;;5.02;100.00;102416.44;2087797;28;20196;-64
2024/02/03 00:57:51;;;;;;;2.50;1.67;;;;;;;5.06;100.00;102425.56;2089296;28;20207;-64
2024/02/03 00:58:52;;;;;;;3.67;1.70;;;;;;;5.08;100.00;102423.28;2088173;28;20212;-64
2024/02/03 00:59:52;;;;;;;7.63;2.07;;;;;;;5.09;100.00;102422.91;2089614;28;20185;-64
2024/02/03 01:00:53;;;;;;;6.03;1.83;;;;;;;5.00;100.00;102405.78;2088426;28;20265;-64
2024/02/03 01:01:53;;;;;;;2.50;1.60;;;;;;;5.09;100.00;102416.63;2088474;28;20193;-64
2024/02/03 01:02:55;;;;;;;5.53;1.80;;;;;;;5.07;100.00;102421.69;2088968;28;20272;-64
2024/02/03 01:03:55;;;;;;;7.70;2.28;;;;;;;5.08;100.00;102415.03;2088837;28;20186;-63
2024/02/03 01:04:56;;;;;;;4.23;1.87;;;;;;;5.10;100.00;102420.94;2089035;28;20198;-64
2024/02/03 01:05:56;;;;;;;5.60;1.90;;;;;;;5.11;100.00;102412.38;2088494;28;21252;-64
2024/02/03 01:06:59;;;;;;;2.77;1.50;;;;;;;5.11;100.00;102414.31;2088071;28;20215;-64
2024/02/03 01:07:59;;;;;;;4.63;1.58;;;;;;;5.07;100.00;102416.97;2089119;28;20267;-63
2024/02/03 01:09:00;;;;;;;3.17;1.87;;;;;;;5.09;100.00;102427.59;2089545;28;20226;-64
2024/02/03 01:10:00;;;;;;;2.97;1.73;;;;;;;5.10;100.00;102418.22;2089292;28;20208;-63
2024/02/03 01:11:02;;;;;;;4.37;1.70;;;;;;;5.06;100.00;102422.81;2089044;28;20722;-64
2024/02/03 01:12:02;;;;;;;3.72;1.60;;;;;;;5.06;100.00;102417.31;2089019;28;20187;-64
2024/02/03 01:13:03;;;;;;;2.93;1.87;;;;;;;5.03;100.00;102421.56;2089253;28;20212;-64
2024/02/03 01:14:04;;;;;;;3.20;1.53;;;;;;;5.02;100.00;102414.47;2088909;28;20196;-64
2024/02/03 01:15:05;;;;;;;4.30;1.50;;;;;;;5.02;100.00;102419.19;2088168;28;20177;-64
2024/02/03 01:16:06;;;;;;;3.20;1.73;;;;;;;5.08;100.00;102421.28;2089292;28;20186;-64
2024/02/03 01:17:06;;;;;;;2.27;1.33;;;;;;;5.10;100.00;102420.94;2088208;28;20195;-64
2024/02/03 01:18:07;;;;;;;2.00;1.40;;;;;;;5.13;100.00;102421.03;2087426;28;20735;-63
2024/02/03 01:19:08;;;;;;;2.50;1.50;;;;;;;5.16;100.00;102417.59;2087308;28;20680;-63
2024/02/03 01:20:09;;;;;;;3.73;2.07;;;;;;;5.17;100.00;102421.94;2088604;28;20186;-64
2024/02/03 01:21:27;;;;;;;5.18;1.83;;;;;;;5.21;100.00;102416.53;2086753;28;20243;-64
2024/02/03 01:22:28;;;;;;;2.92;1.70;;;;;;;5.18;100.00;102414.50;2088356;28;20674;-64
2024/02/03 01:23:28;;;;;;;2.87;1.50;;;;;;;5.10;100.00;102410.78;2087511;28;20589;-63
2024/02/03 01:24:29;;;;;;;3.23;1.50;;;;;;;5.14;100.00;102410.84;2089158;28;20208;-64
2024/02/03 01:25:29;;;;;;;2.73;1.50;;;;;;;5.09;100.00;102402.88;2089183;28;20234;-65
2024/02/03 01:26:30;;;;;;;4.43;1.60;;;;;;;5.16;100.00;102408.53;2088929;28;20574;-64
2024/02/03 01:27:30;;;;;;;3.20;1.70;;;;;;;5.14;100.00;102410.84;2088534;28;20622;-63
2024/02/03 01:28:31;;;;;;;4.90;1.67;;;;;;;5.16;100.00;102406.59;2083284;28;20182;-64
2024/02/03 01:29:31;;;;;;;6.17;1.57;;;;;;;4.61;100.00;102324.25;2088757;28;20736;-64
2024/02/03 01:30:32;;;;;;;1.80;1.30;;;;;;;5.17;100.00;102405.44;2088901;28;20206;-64
2024/02/03 01:31:32;;;;;;;2.60;1.50;;;;;;;5.22;100.00;102404.38;2089489;28;20185;-63
2024/02/03 01:32:33;;;;;;;2.40;1.40;;;;;;;5.20;100.00;102409.44;2088840;28;20584;-64
2024/02/03 01:33:34;;;;;;;3.60;1.87;;;;;;;5.24;100.00;102404.84;2088865;28;20201;-64
2024/02/03 01:34:34;;;;;;;3.10;1.67;;;;;;;4.16;100.00;102224.19;2088334;28;20652;-63
2024/02/03 01:35:35;;;;;;;4.63;1.40;;;;;;;5.29;100.00;102401.84;2088628;28;20195;-64
2024/02/03 01:36:36;;;;;;;3.63;1.27;;;;;;;5.31;100.00;102397.59;2088681;28;20184;-64
2024/02/03 01:37:36;;;;;;;3.92;1.83;;;;;;;5.30;100.00;102396.00;2085248;28;20194;-64
2024/02/03 01:38:37;;;;;;;2.70;1.27;;;;;;;5.28;100.00;102389.25;2086631;28;20702;-63
2024/02/03 01:39:38;;;;;;;2.70;1.30;;;;;;;5.19;100.00;102377.63;2089199;28;20196;-64
2024/02/03 01:40:38;;;;;;;4.57;1.97;;;;;;;5.26;100.00;102389.59;2086967;28;20225;-63
2024/02/03 01:41:39;;;;;;;2.40;1.47;;;;;;;5.22;100.00;102385.13;2088784;28;20202;-64
2024/02/03 01:42:39;;;;;;;5.87;1.43;;;;;;;5.21;100.00;102389.03;2088711;28;20247;-63
2024/02/03 01:43:40;;;;;;;2.27;1.40;;;;;;;5.25;100.00;102382.50;2088106;28;20227;-64
2024/02/03 01:44:42;;;;;;;3.67;1.53;;;;;;;5.26;100.00;102381.34;2088790;28;20196;-64
2024/02/03 01:45:43;;;;;;;3.45;1.80;;;;;;;4.78;100.00;102307.44;2086307;28;20275;-64
2024/02/03 01:46:45;;;;;;;3.57;1.50;;;;;;;5.22;100.00;102379.63;2087106;28;20669;-64
2024/02/03 01:47:45;;;;;;;4.35;1.58;;;;;;;5.24;100.00;102385.59;2088844;28;20677;-64
2024/02/03 01:48:46;;;;;;;3.27;1.23;;;;;;;4.50;100.00;102257.28;2088557;28;20561;-64
2024/02/03 01:49:48;;;;;;;3.23;1.87;;;;;;;5.27;100.00;102380.19;2088602;28;20227;-63
2024/02/03 01:50:52;;;;;;;2.40;1.60;;;;;;;4.52;100.00;102267.94;2087450;28;20177;-63
2024/02/03 01:51:53;;;;;;;5.18;1.73;;;;;;;5.26;100.00;102373.09;2088837;28;20192;-63
2024/02/03 01:52:54;;;;;;;4.32;2.40;;;;;;;5.27;100.00;102377.44;2089133;28;20681;-64
2024/02/03 01:53:56;;;;;;;3.30;1.58;;;;;;;5.24;100.00;102366.38;2087848;28;20245;-63
2024/02/03 01:54:56;;;;;;;2.85;1.35;;;;;;;5.24;100.00;102378.13;2088476;28;20178;-64
2024/02/03 01:55:58;;;;;;;7.13;1.53;;;;;;;5.19;100.00;102367.41;2088656;28;20285;-63
2024/02/03 01:56:59;;;;;;;2.47;1.42;;;;;;;4.70;100.00;102297.44;2088794;28;20204;-64
2024/02/03 01:58:02;;;;;;;2.83;1.40;;;;;;;5.16;100.00;102361.81;2087734;28;20212;-64
2024/02/03 01:59:03;;;;;;;4.97;1.45;;;;;;;4.74;100.00;102314.81;2087829;28;20227;-63
2024/02/03 02:00:05;;;;;;;12.30;1.77;;;;;;;5.07;100.00;102352.97;2087719;28;20217;-63
2024/02/03 02:01:06;;;;;;;3.13;1.80;;;;;;;4.77;100.00;102319.59;2088693;28;20433;-64
2024/02/03 02:02:07;;;;;;;4.75;1.60;;;;;;;4.99;100.00;102352.00;2088848;28;20191;-64
2024/02/03 02:03:07;;;;;;;3.63;2.00;;;;;;;4.45;100.00;102278.69;2088841;28;20703;-63
2024/02/03 02:04:08;;;;;;;4.30;1.40;;;;;;;4.89;100.00;102355.25;2087070;28;20188;-63
2024/02/03 02:05:08;;;;;;;2.53;1.50;;;;;;;4.88;100.00;102350.88;2088177;28;20195;-64
2024/02/03 02:06:09;;;;;;;10.63;2.07;;;;;;;4.89;100.00;102359.94;2087725;28;20192;-63
2024/02/03 02:07:10;;;;;;;3.10;1.17;;;;;;;4.89;100.00;102348.94;2085970;28;20200;-63
2024/02/03 02:08:11;;;;;;;2.60;1.33;;;;;;;4.86;100.00;102352.38;2088545;28;20190;-64
2024/02/03 02:09:25;;;;;;;1.88;1.10;;;;;;;4.85;100.00;102359.03;2088984;28;20178;-64
2024/02/03 02:10:28;;;;;;;3.72;1.70;;;;;;;4.80;100.00;102353.81;2087381;28;20195;-64
2024/02/03 02:11:30;;;;;;;1.60;1.27;;;;;;;4.75;100.00;102343.06;2087673;28;20189;-64
2024/02/03 02:12:31;;;;;;;4.43;1.60;;;;;;;4.03;100.00;102258.31;2087861;28;20196;-63
2024/02/03 02:13:32;;;;;;;2.50;1.47;;;;;;;4.26;100.00;102276.63;2088626;28;20657;-63
2024/02/03 02:14:32;;;;;;;4.20;1.70;;;;;;;4.63;100.00;102332.16;2088278;28;20655;-64
2024/02/03 02:15:33;;;;;;;1.73;1.03;;;;;;;4.71;100.00;102336.69;2089203;28;20468;-63
2024/02/03 02:16:34;;;;;;;5.23;1.50;;;;;;;4.68;100.00;102337.41;2086947;28;20325;-63
2024/02/03 02:17:36;;;;;;;4.33;1.10;;;;;;;4.67;100.00;102333.06;2088705;28;20526;-64
2024/02/03 02:18:36;;;;;;;4.05;1.60;;;;;;;4.67;100.00;102325.59;2088219;28;20212;-64
2024/02/03 02:19:37;;;;;;;3.33;1.60;;;;;;;4.64;100.00;102328.25;2088606;28;20181;-63
2024/02/03 02:20:38;;;;;;;3.53;1.90;;;;;;;4.60;100.00;102332.84;2088852;28;20191;-64
2024/02/03 02:21:39;;;;;;;3.60;1.63;;;;;;;4.32;100.00;102275.22;2087817;28;20642;-64
2024/02/03 02:22:39;;;;;;;4.57;1.93;;;;;;;4.68;100.00;102327.22;2088501;28;20652;-63
2024/02/03 02:23:40;;;;;;;9.17;1.83;;;;;;;4.74;100.00;102333.25;2088369;28;20189;-64
2024/02/03 02:24:41;;;;;;;1.73;1.20;;;;;;;4.82;100.00;102324.84;2088176;28;20704;-64
2024/02/03 02:25:42;;;;;;;5.20;1.60;;;;;;;4.85;100.00;102324.13;2088046;28;20237;-63
2024/02/03 02:26:42;;;;;;;3.70;1.50;;;;;;;4.26;100.00;102232.72;2086124;28;20202;-63
2024/02/03 02:27:43;;;;;;;4.47;1.30;;;;;;;4.83;100.00;102325.63;2086482;28;20193;-63
2024/02/03 02:28:43;;;;;;;2.83;1.27;;;;;;;4.78;100.00;102323.94;2088113;28;20177;-63
2024/02/03 02:29:44;;;;;;;4.37;1.37;;;;;;;4.30;100.00;102246.53;2089006;28;20216;-64
2024/02/03 02:30:45;;;;;;;3.40;1.20;;;;;;;4.93;100.00;102323.16;2087739;28;20185;-64
2024/02/03 02:31:45;;;;;;;2.10;1.40;;;;;;;4.23;100.00;102222.44;2088546;28;20225;-64
2024/02/03 02:32:46;;;;;;;1.80;1.20;;;;;;;4.89;100.00;102324.22;2087792;28;21047;-63
2024/02/03 02:33:46;;;;;;;3.37;1.30;;;;;;;4.92;100.00;102321.56;2087884;28;20693;-63
2024/02/03 02:34:47;;;;;;;2.23;1.67;;;;;;;4.69;100.00;102289.56;2087171;28;20195;-63
2024/02/03 02:35:50;;;;;;;3.10;1.47;;;;;;;4.97;100.00;102321.31;2087497;28;20197;-63
2024/02/03 02:36:51;;;;;;;2.00;1.20;;;;;;;5.00;100.00;102326.09;2088547;28;20193;-64
2024/02/03 02:37:52;;;;;;;4.50;1.90;;;;;;;4.75;100.00;102280.72;2088157;28;20200;-64
2024/02/03 02:38:52;;;;;;;2.78;1.48;;;;;;;5.05;100.00;102312.09;2088608;28;20220;-64
2024/02/03 02:39:53;;;;;;;4.47;1.23;;;;;;;5.12;100.00;102317.78;2088779;28;20184;-64
2024/02/03 02:40:54;;;;;;;5.83;1.90;;;;;;;5.14;100.00;102320.16;2085193;28;20275;-63
2024/02/03 02:41:54;;;;;;;2.77;1.07;;;;;;;4.71;100.00;102229.56;2088686;28;20832;-64
2024/02/03 02:42:55;;;;;;;4.83;1.43;;;;;;;5.22;100.00;102309.00;2088416;28;20196;-64
2024/02/03 02:43:55;;;;;;;5.40;1.77;;;;;;;5.33;100.00;102317.50;2088517;28;20221;-64
2024/02/03 02:44:56;;;;;;;3.73;1.70;;;;;;;5.34;100.00;102314.38;2088223;28;20188;-64
2024/02/03 02:45:56;;;;;;;2.13;1.57;;;;;;;5.40;100.00;102312.16;2087286;28;20657;-64
2024/02/03 02:46:57;;;;;;;4.93;1.57;;;;;;;5.41;100.00;102319.25;2086660;28;20614;-64
2024/02/03 02:47:57;;;;;;;3.07;1.47;;;;;;;5.37;100.00;102307.38;2088939;28;20565;-64
2024/02/03 02:48:58;;;;;;;5.97;1.70;;;;;;;5.47;100.00;102318.63;2088530;28;20529;-64
2024/02/03 02:49:58;;;;;;;3.40;1.23;;;;;;;5.44;100.00;102308.34;2088633;28;20577;-64
2024/02/03 02:50:59;;;;;;;1.87;1.20;;;;;;;5.42;100.00;102331.84;2088740;28;20192;-64
2024/02/03 02:52:00;;;;;;;2.53;1.30;;;;;;;4.83;100.00;102213.03;2088116;28;20231;-64
2024/02/03 02:53:00;;;;;;;1.80;1.10;;;;;;;5.55;100.00;102317.63;2087560;28;20214;-64
2024/02/03 02:54:01;;;;;;;5.37;1.57;;;;;;;5.44;100.00;102294.59;2087391;28;20254;-64
2024/02/03 02:55:01;;;;;;;3.53;1.60;;;;;;;5.32;100.00;102272.72;2088425;28;20212;-63
2024/02/03 02:56:02;;;;;;;3.43;1.40;;;;;;;5.56;100.00;102311.00;2088913;28;20322;-64
2024/02/03 02:57:03;;;;;;;3.47;1.33;;;;;;;5.54;100.00;102316.03;2088454;28;20271;-63
2024/02/03 02:58:04;;;;;;;2.57;1.50;;;;;;;5.56;100.00;102310.19;2089637;28;20262;-64
2024/02/03 02:59:05;;;;;;;4.67;1.53;;;;;;;5.56;100.00;102313.75;2090626;28;20196;-64
2024/02/03 03:00:09;;;;;;;4.07;1.45;;;;;;;5.59;100.00;102310.25;2087087;28;20191;-63
2024/02/03 03:01:10;;;;;;;2.40;1.40;;;;;;;5.58;100.00;102319.69;2087839;28;20203;-64
2024/02/03 03:02:10;;;;;;;2.43;1.20;;;;;;;5.54;100.00;102312.50;2090549;28;20862;-63
2024/02/03 03:03:11;;;;;;;1.77;1.10;;;;;;;4.99;100.00;102228.34;2090089;28;20223;-64
2024/02/03 03:04:12;;;;;;;2.83;1.23;;;;;;;5.35;100.00;102287.69;2090158;28;20178;-63
2024/02/03 03:05:12;;;;;;;2.40;1.37;;;;;;;5.47;100.00;102310.38;2090669;28;20237;-64
2024/02/03 03:06:13;;;;;;;2.43;1.27;;;;;;;5.51;100.00;102308.53;2089053;28;20219;-64
2024/02/03 03:07:15;;;;;;;2.33;1.27;;;;;;;5.50;100.00;102314.38;2087786;28;20201;-64
2024/02/03 03:08:15;;;;;;;2.70;1.27;;;;;;;5.28;100.00;102274.56;2086218;28;20195;-63
2024/02/03 03:09:16;;;;;;;2.10;1.10;;;;;;;5.55;100.00;102314.09;2089780;28;20200;-64
2024/02/03 03:10:17;;;;;;;2.13;1.03;;;;;;;5.49;100.00;102312.78;2088999;28;20194;-63
2024/02/03 03:11:17;;;;;;;2.13;1.20;;;;;;;5.48;100.00;102311.97;2089085;28;20183;-63
2024/02/03 03:12:18;;;;;;;5.43;1.57;;;;;;;5.34;100.00;102281.38;2090267;28;20241;-64
2024/02/03 03:13:18;;;;;;;3.47;1.20;;;;;;;5.53;100.00;102300.69;2089060;28;20240;-63
2024/02/03 03:14:19;;;;;;;2.07;1.30;;;;;;;5.55;100.00;102303.88;2090030;28;20195;-63
2024/02/03 03:15:19;;;;;;;5.10;1.30;;;;;;;5.57;100.00;102303.53;2090028;28;20216;-64
2024/02/03 03:16:20;;;;;;;4.87;1.30;;;;;;;5.54;100.00;102301.50;2090425;28;20600;-63
2024/02/03 03:17:20;;;;;;;2.50;1.10;;;;;;;5.62;100.00;102292.25;2087454;28;20210;-64
2024/02/03 03:18:21;;;;;;;2.33;1.30;;;;;;;5.20;100.00;102230.78;2089235;28;20215;-64
2024/02/03 03:19:21;;;;;;;2.50;1.00;;;;;;;5.61;100.00;102299.72;2089979;28;20197;-63
2024/02/03 03:21:41;;;;;;;2.05;1.10;;;;;;;5.74;100.00;102294.91;2088572;28;20198;-64
2024/02/03 03:22:41;;;;;;;3.07;1.33;;;;;;;5.77;100.00;102296.91;2090394;28;20193;-63
2024/02/03 03:23:42;;;;;;;3.03;1.23;;;;;;;5.72;100.00;102289.75;2089276;28;20197;-63
2024/02/03 03:24:43;;;;;;;1.50;1.00;;;;;;;5.79;100.00;102300.91;2088906;28;20195;-63
2024/02/03 03:25:43;;;;;;;3.03;1.00;;;;;;;5.82;100.00;102299.41;2090038;28;20242;-64
2024/02/03 03:26:44;;;;;;;3.90;1.50;;;;;;;5.88;100.00;102298.78;2089897;28;20216;-64
2024/02/03 03:27:44;;;;;;;2.93;1.20;;;;;;;5.45;100.00;102219.22;2089706;28;20191;-64
2024/02/03 03:28:45;;;;;;;3.23;1.03;;;;;;;6.00;100.00;102298.63;2089461;28;20181;-64
2024/02/03 03:29:49;;;;;;;2.00;1.20;;;;;;;6.05;100.00;102301.09;2090115;28;20186;-63
2024/02/03 03:30:49;;;;;;;2.53;1.33;;;;;;;5.99;100.00;102287.97;2090260;28;20177;-63
2024/02/03 03:31:50;;;;;;;1.33;1.07;;;;;;;6.01;100.00;102283.72;2089850;28;20179;-64
2024/02/03 03:32:50;;;;;;;3.80;1.10;;;;;;;6.07;100.00;102292.50;2089100;28;20224;-64
2024/02/03 03:33:51;;;;;;;1.83;0.90;;;;;;;5.68;100.00;102246.81;2089856;28;20237;-64
2024/02/03 03:34:51;;;;;;;3.63;1.30;;;;;;;6.07;100.00;102298.00;2089516;28;20206;-64
2024/02/03 03:35:52;;;;;;;5.60;1.77;;;;;;;6.11;100.00;102285.13;2089105;28;20247;-63
2024/02/03 03:36:52;;;;;;;3.60;1.60;;;;;;;6.08;100.00;102283.06;2089392;28;20198;-63
2024/02/03 03:37:56;;;;;;;4.50;1.87;;;;;;;6.08;100.00;102285.81;2089146;28;20186;-64
2024/02/03 03:38:56;;;;;;;3.47;1.30;;;;;;;6.13;100.00;102291.84;2089486;28;20214;-64
2024/02/03 03:39:57;;;;;;;3.30;1.07;;;;;;;6.07;100.00;102267.72;2090017;28;20221;-63
2024/02/03 03:40:57;;;;;;;4.73;1.67;;;;;;;6.24;100.00;102290.09;2089425;28;20255;-63
2024/02/03 03:41:58;;;;;;;3.13;1.30;;;;;;;6.28;100.00;102279.16;2087709;28;20189;-64
2024/02/03 03:42:58;;;;;;;1.80;1.07;;;;;;;6.31;100.00;102295.75;2090046;28;20205;-64
2024/02/03 03:43:59;;;;;;;2.73;1.13;;;;;;;6.34;100.00;102285.97;2089884;28;20617;-63
2024/02/03 03:44:59;;;;;;;3.43;1.50;;;;;;;6.32;100.00;102285.53;2089424;28;20593;-64
2024/02/03 03:46:00;;;;;;;2.03;1.33;;;;;;;6.31;100.00;102286.69;2089485;28;20186;-64
2024/02/03 03:47:00;;;;;;;1.80;0.80;;;;;;;6.36;100.00;102286.41;2089268;28;20194;-64
2024/02/03 03:48:01;;;;;;;2.00;1.30;;;;;;;6.39;100.00;102282.91;2088630;28;20194;-64
2024/02/03 03:49:02;;;;;;;2.60;1.40;;;;;;;6.41;100.00;102281.38;2089554;28;20268;-64
2024/02/03 03:50:03;;;;;;;5.47;1.27;;;;;;;6.40;100.00;102274.28;2089894;28;20202;-63
2024/02/03 03:51:04;;;;;;;7.90;1.85;;;;;;;6.37;100.00;102299.81;2088776;28;20253;-64
2024/02/03 03:52:05;;;;;;;4.53;1.87;;;;;;;6.43;100.00;102275.53;2090233;28;20830;-64
2024/02/03 03:53:05;;;;;;;3.17;1.83;;;;;;;6.46;100.00;102272.84;2087932;28;20207;-64
2024/02/03 03:54:06;;;;;;;4.17;1.40;;;;;;;6.42;100.00;102279.44;2088983;28;20617;-64
2024/02/03 03:55:07;;;;;;;2.03;1.03;;;;;;;6.47;100.00;102268.91;2089106;28;20232;-63
2024/02/03 03:56:07;;;;;;;2.33;1.30;;;;;;;6.44;100.00;102277.09;2089960;28;20199;-64
2024/02/03 03:57:08;;;;;;;1.60;0.90;;;;;;;6.27;100.00;102261.06;2088868;28;20449;-63
2024/02/03 03:58:08;;;;;;;2.57;1.37;;;;;;;6.49;100.00;102282.31;2088588;28;20191;-63
2024/02/03 03:59:09;;;;;;;1.90;1.00;;;;;;;6.45;100.00;102275.94;2088869;28;20244;-64
2024/02/03 04:00:11;;;;;;;3.47;1.40;;;;;;;6.43;100.00;102268.06;2087035;28;20203;-63
2024/02/03 04:01:11;;;;;;;3.85;1.13;;;;;;;6.49;100.00;102276.81;2089684;28;20626;-64
2024/02/03 04:02:14;;;;;;;2.53;1.00;;;;;;;6.48;100.00;102273.28;2089392;28;20259;-63
2024/02/03 04:03:15;;;;;;;4.65;1.15;;;;;;;6.44;100.00;102269.66;2089562;28;20237;-64
2024/02/03 04:04:17;;;;;;;4.77;1.43;;;;;;;6.47;100.00;102271.66;2089932;28;20718;-64
2024/02/03 04:05:18;;;;;;;2.80;1.27;;;;;;;6.51;100.00;102277.25;2090029;28;20194;-64
2024/02/03 04:06:19;;;;;;;5.60;1.65;;;;;;;6.40;100.00;102277.03;2089596;28;20213;-63
2024/02/03 04:07:20;;;;;;;1.87;1.03;;;;;;;6.44;100.00;102274.34;2088220;28;20278;-64
2024/02/03 04:08:20;;;;;;;3.43;1.20;;;;;;;6.43;100.00;102273.56;2089471;28;20256;-64
2024/02/03 04:09:21;;;;;;;1.77;0.97;;;;;;;6.35;100.00;102258.06;2089431;28;20748;-63
2024/02/03 04:10:21;;;;;;;1.47;0.80;;;;;;;6.48;100.00;102272.47;2088973;28;20259;-64
2024/02/03 04:11:22;;;;;;;2.63;1.10;;;;;;;6.48;100.00;102269.72;2088924;28;20214;-64
2024/02/03 04:12:22;;;;;;;2.13;1.37;;;;;;;6.49;100.00;102274.06;2089733;28;20653;-63
2024/02/03 04:13:23;;;;;;;2.17;1.20;;;;;;;6.48;100.00;102269.72;2090180;28;20242;-64
2024/02/03 04:14:23;;;;;;;2.73;1.07;;;;;;;6.51;100.00;102263.50;2088882;28;20197;-64
2024/02/03 04:15:24;;;;;;;2.50;1.30;;;;;;;6.56;100.00;102275.00;2089327;28;20653;-63
2024/02/03 04:16:24;;;;;;;2.57;1.10;;;;;;;6.55;100.00;102270.66;2088588;28;20269;-64
2024/02/03 04:17:25;;;;;;;1.47;1.03;;;;;;;6.26;100.00;102218.94;2089602;28;20219;-64
2024/02/03 04:18:25;;;;;;;3.20;1.00;;;;;;;6.62;100.00;102270.75;2089192;28;20279;-63
2024/02/03 04:19:26;;;;;;;3.27;1.50;;;;;;;6.55;100.00;102254.13;2089592;28;20182;-63
2024/02/03 04:20:26;;;;;;;3.47;1.40;;;;;;;6.65;100.00;102264.53;2089365;28;20264;-64
2024/02/03 04:21:28;;;;;;;3.37;1.30;;;;;;;6.65;100.00;102260.97;2089856;28;20209;-64
2024/02/03 04:22:29;;;;;;;4.53;1.30;;;;;;;6.75;100.00;102274.16;2088783;28;20222;-64
2024/02/03 04:23:29;;;;;;;4.03;1.70;;;;;;;6.78;100.00;102270.66;2086676;28;20233;-64
2024/02/03 04:24:30;;;;;;;2.13;1.20;;;;;;;6.80;100.00;102262.81;2087808;28;20242;-65
2024/02/03 04:25:30;;;;;;;3.30;1.40;;;;;;;6.84;100.00;102266.44;2089027;28;20246;-63
2024/02/03 04:26:31;;;;;;;3.37;1.47;;;;;;;6.87;100.00;102268.47;2089018;28;20228;-64
2024/02/03 04:27:32;;;;;;;3.43;1.13;;;;;;;6.83;100.00;102264.84;2088449;28;20226;-64
2024/02/03 04:28:32;;;;;;;4.80;1.73;;;;;;;6.86;100.00;102270.41;2088619;28;20184;-64
2024/02/03 04:29:32;;;;;;;3.33;1.20;;;;;;;6.84;100.00;102258.97;2089903;28;20195;-64
2024/02/03 04:30:33;;;;;;;4.00;1.13;;;;;;;6.86;100.00;102256.63;2089567;28;20197;-64
2024/02/03 04:31:33;;;;;;;4.53;1.43;;;;;;;6.60;100.00;102220.75;2086356;28;20194;-64
2024/02/03 04:32:34;;;;;;;2.87;1.40;;;;;;;6.85;100.00;102248.72;2089611;28;20376;-64
2024/02/03 04:33:36;;;;;;;2.40;1.43;;;;;;;6.88;100.00;102259.03;2089454;28;20266;-64
2024/02/03 04:34:37;;;;;;;1.50;0.83;;;;;;;6.88;100.00;102257.06;2088831;28;20196;-64
2024/02/03 04:35:37;;;;;;;2.27;1.07;;;;;;;6.85;100.00;102248.72;2089080;28;20426;-63
2024/02/03 04:36:38;;;;;;;3.30;1.50;;;;;;;6.85;100.00;102260.56;2088538;28;20194;-64
2024/02/03 04:37:38;;;;;;;3.77;1.40;;;;;;;6.89;100.00;102252.34;2088662;28;20668;-63
2024/02/03 04:38:39;;;;;;;2.37;1.70;;;;;;;6.86;100.00;102253.88;2088362;28;20608;-64
2024/02/03 04:39:41;;;;;;;3.43;1.47;;;;;;;6.90;100.00;102249.22;2088741;28;20598;-64
2024/02/03 04:40:42;;;;;;;4.63;1.50;;;;;;;6.98;100.00;102250.16;2089331;28;20198;-64
2024/02/03 04:41:42;;;;;;;3.03;1.50;;;;;;;7.02;100.00;102251.00;2087955;28;20941;-64
2024/02/03 04:42:43;;;;;;;2.70;1.60;;;;;;;6.97;100.00;102245.81;2088970;28;20195;-63
2024/02/03 04:43:43;;;;;;;1.83;1.13;;;;;;;7.01;100.00;102257.66;2089071;28;20191;-65